createdAt,value
2023-01-18T00:01:39.811Z,95653.06
2023-01-18T00:07:01.529Z,95659.47
2023-01-18T00:12:23.272Z,95651.16
2023-01-18T00:17:47.703Z,95657.66
2023-01-18T00:23:09.547Z,95656.78
2023-01-18T00:28:31.926Z,95660.13
2023-01-18T00:33:53.611Z,95660.47
2023-01-18T00:39:15.849Z,95662.38
2023-01-18T00:44:37.584Z,95663.47
2023-01-18T00:49:59.323Z,95665.53
2023-01-18T00:55:21.052Z,95675.38
2023-01-18T01:00:42.819Z,95669.22
2023-01-18T01:06:23.244Z,95672.78
2023-01-18T01:12:05.564Z,95677.56
2023-01-18T01:17:55.089Z,95671.31
2023-01-18T01:23:41.010Z,95677.34
2023-01-18T01:29:02.911Z,95684.50
2023-01-18T01:34:24.680Z,95697.59
2023-01-18T01:39:46.373Z,95700.97
2023-01-18T01:45:09.037Z,95697.09
2023-01-18T01:50:39.359Z,95699.72
2023-01-18T01:56:01.797Z,95700.75
2023-01-18T02:01:23.662Z,95709.63
2023-01-18T02:06:45.457Z,95724.44
2023-01-18T02:12:07.171Z,95719.28
2023-01-18T02:17:47.618Z,95714.25
2023-01-18T02:23:30.754Z,95718.94
2023-01-18T02:29:17.507Z,95725.72
2023-01-18T02:34:42.492Z,95740.63
2023-01-18T02:40:14.691Z,95738.88
2023-01-18T02:46:03.904Z,95749.28
2023-01-18T02:51:25.627Z,95752.19
2023-01-18T02:56:51.341Z,95757.69
2023-01-18T03:02:16.972Z,95765.50
2023-01-18T03:07:52.111Z,95766.63
2023-01-18T03:13:22.042Z,95758.44
2023-01-18T03:19:05.059Z,95762.97
2023-01-18T03:24:30.073Z,95762.03
2023-01-18T03:30:10.266Z,95762.69
2023-01-18T03:35:32.645Z,95780.84
2023-01-18T03:40:55.091Z,95775.16
2023-01-18T03:46:19.225Z,95786.06
2023-01-18T03:51:51.679Z,95781.88
2023-01-18T03:57:24.043Z,95788.47
2023-01-18T04:02:48.552Z,95795.50
2023-01-18T04:08:10.275Z,95797.09
2023-01-18T04:13:31.963Z,95798.44
2023-01-18T04:18:53.697Z,95804.38
2023-01-18T04:24:17.179Z,95818.31
2023-01-18T04:29:39.086Z,95819.78
2023-01-18T04:35:00.799Z,95824.56
2023-01-18T04:40:22.507Z,95830.13
2023-01-18T04:45:55.620Z,95839.75
2023-01-18T04:51:17.943Z,95848.38
2023-01-18T04:56:39.778Z,95864.25
2023-01-18T05:02:01.521Z,95870.63
2023-01-18T05:07:27.060Z,95879.47
2023-01-18T05:12:48.738Z,95888.56
2023-01-18T05:18:10.473Z,95906.75
2023-01-18T05:23:32.483Z,95920.34
2023-01-18T05:28:58.612Z,95933.84
2023-01-18T05:34:20.307Z,95951.69
2023-01-18T05:39:42.246Z,95949.94
2023-01-18T05:45:04.274Z,95964.06
2023-01-18T05:50:25.999Z,95973.97
2023-01-18T05:56:01.339Z,95980.16
2023-01-18T06:01:23.105Z,95990.25
2023-01-18T06:06:44.855Z,96014.09
2023-01-18T06:12:07.012Z,96027.38
2023-01-18T06:17:31.242Z,96040.47
2023-01-18T06:22:52.955Z,96046.56
2023-01-18T06:28:14.739Z,96054.63
2023-01-18T06:33:36.469Z,96062.94
2023-01-18T06:38:58.179Z,96076.19
2023-01-18T06:44:20.012Z,96087.97
2023-01-18T06:49:41.764Z,96093.59
2023-01-18T06:55:03.689Z,96103.47
2023-01-18T07:00:25.412Z,96104.69
2023-01-18T07:05:48.064Z,96121.63
2023-01-18T07:11:12.043Z,96126.94
2023-01-18T07:16:33.806Z,96143.41
2023-01-18T07:21:55.523Z,96153.22
2023-01-18T07:27:17.212Z,96163.34
2023-01-18T07:32:39.386Z,96177.72
2023-01-18T07:38:02.155Z,96186.47
2023-01-18T07:43:24.155Z,96193.78
2023-01-18T07:48:46.441Z,96205.72
2023-01-18T07:54:08.147Z,96220.81
2023-01-18T07:59:32.315Z,96226.75
2023-01-18T08:04:54.018Z,96229.16
2023-01-18T08:10:16.705Z,96246.13
2023-01-18T08:15:38.926Z,96258.69
2023-01-18T08:21:00.854Z,96258.69
2023-01-18T08:26:22.543Z,96274.78
2023-01-18T08:31:44.238Z,96285.56
2023-01-18T08:37:06.010Z,96297.53
2023-01-18T08:42:27.694Z,96314.59
2023-01-18T08:47:55.652Z,96329.59
2023-01-18T08:53:17.387Z,96347.53
2023-01-18T08:58:39.347Z,96348.72
2023-01-18T09:04:01.036Z,96360.13
2023-01-18T09:09:22.721Z,96366.13
2023-01-18T09:14:44.396Z,96386.50
2023-01-18T09:20:09.639Z,96390.28
2023-01-18T09:25:31.690Z,96394.53
2023-01-18T09:30:53.911Z,96422.06
2023-01-18T09:36:15.665Z,96435.13
2023-01-18T09:41:39.747Z,96434.59
2023-01-18T09:47:07.385Z,96454.94
2023-01-18T09:52:50.819Z,96455.16
2023-01-18T09:58:27.635Z,96459.00
2023-01-18T10:04:12.090Z,96473.00
2023-01-18T10:09:40.149Z,96486.19
2023-01-18T10:15:20.272Z,96494.38
2023-01-18T10:20:48.872Z,96504.25
2023-01-18T10:26:28.666Z,96498.44
2023-01-18T10:32:19.847Z,96501.59
2023-01-18T10:37:46.490Z,96511.97
2023-01-18T10:43:17.034Z,96519.09
2023-01-18T10:48:39.318Z,96533.91
2023-01-18T10:54:26.705Z,96534.66
2023-01-18T10:59:52.184Z,96537.78
2023-01-18T11:05:26.124Z,96543.88
2023-01-18T11:10:59.737Z,96554.09
2023-01-18T11:16:23.280Z,96552.19
2023-01-18T11:21:47.681Z,96550.69
2023-01-18T11:27:15.294Z,96561.00
2023-01-18T11:32:39.778Z,96571.47
2023-01-18T11:38:03.256Z,96579.81
2023-01-18T11:43:27.838Z,96588.03
2023-01-18T11:49:20.445Z,96581.03
2023-01-18T11:54:47.028Z,96593.75
2023-01-18T12:00:14.412Z,96604.19
2023-01-18T12:05:36.083Z,96602.31
2023-01-18T12:11:14.236Z,96621.31
2023-01-18T12:17:02.396Z,96626.75
2023-01-18T12:22:49.949Z,96635.16
2023-01-18T12:28:40.944Z,96634.78
2023-01-18T12:34:21.998Z,96654.59
2023-01-18T12:40:08.453Z,96662.16
2023-01-18T12:45:40.399Z,96662.34
2023-01-18T12:51:11.671Z,96672.13
2023-01-18T12:56:39.922Z,96678.41
2023-01-18T13:02:21.342Z,96678.41
2023-01-18T13:07:49.542Z,96682.75
2023-01-18T13:13:17.519Z,96686.72
2023-01-18T13:19:00.487Z,96690.50
2023-01-18T13:24:52.917Z,96700.28
2023-01-18T13:30:16.961Z,96724.72
2023-01-18T13:35:50.879Z,96719.63
2023-01-18T13:41:13.421Z,96734.22
2023-01-18T13:46:39.268Z,96748.06
2023-01-18T13:52:02.558Z,96762.88
2023-01-18T13:57:24.659Z,96766.13
2023-01-18T14:02:51.788Z,96777.25
2023-01-18T14:08:23.427Z,96784.22
2023-01-18T14:13:45.060Z,96787.84
2023-01-18T14:19:19.234Z,96804.16
2023-01-18T14:24:58.612Z,96811.56
2023-01-18T14:30:29.666Z,96829.81
2023-01-18T14:35:58.206Z,96836.09
2023-01-18T14:41:20.070Z,96846.41
2023-01-18T14:46:42.932Z,96848.75
2023-01-18T14:52:06.616Z,96859.09
2023-01-18T14:57:29.317Z,96857.06
2023-01-18T15:02:51.042Z,96887.31
2023-01-18T15:08:12.987Z,96889.06
2023-01-18T15:13:47.554Z,96901.06
2023-01-18T15:19:20.378Z,96913.00
2023-01-18T15:24:44.108Z,96913.63
2023-01-18T15:30:12.658Z,96925.81
2023-01-18T15:35:34.417Z,96929.38
2023-01-18T15:41:10.898Z,96943.56
2023-01-18T15:46:38.560Z,96947.41
2023-01-18T15:52:00.422Z,96973.28
2023-01-18T15:57:22.547Z,96968.03
2023-01-18T16:02:51.393Z,96976.81
2023-01-18T16:08:21.516Z,96989.38
2023-01-18T16:13:43.540Z,96995.88
2023-01-18T16:19:14.113Z,97003.13
2023-01-18T16:24:41.011Z,97019.09
2023-01-18T16:30:36.870Z,97014.72
2023-01-18T16:35:58.577Z,97022.34
2023-01-18T16:41:20.347Z,97026.69
2023-01-18T16:46:42.045Z,97027.63
2023-01-18T16:52:04.619Z,97045.00
2023-01-18T16:57:26.607Z,97045.06
2023-01-18T17:02:48.871Z,97049.31
2023-01-18T17:08:13.700Z,97061.88
2023-01-18T17:13:35.374Z,97063.78
2023-01-18T17:18:57.064Z,97071.22
2023-01-18T17:24:21.321Z,97090.03
2023-01-18T17:29:42.986Z,97088.66
2023-01-18T17:35:06.431Z,97099.78
2023-01-18T17:40:39.398Z,97108.41
2023-01-18T17:46:04.085Z,97119.16
2023-01-18T17:51:25.939Z,97134.53
2023-01-18T17:56:47.668Z,97142.88
2023-01-18T18:02:10.801Z,97146.91
2023-01-18T18:07:33.176Z,97154.56
2023-01-18T18:12:55.028Z,97167.19
2023-01-18T18:18:24.185Z,97170.53
2023-01-18T18:23:46.154Z,97181.16
2023-01-18T18:29:07.940Z,97184.81
2023-01-18T18:34:30.057Z,97193.81
2023-01-18T18:39:51.764Z,97204.22
2023-01-18T18:45:13.434Z,97218.28
2023-01-18T18:50:35.331Z,97224.19
2023-01-18T18:56:00.214Z,97234.34
2023-01-18T19:01:24.545Z,97248.53
2023-01-18T19:06:46.493Z,97254.91
2023-01-18T19:12:09.069Z,97262.66
2023-01-18T19:17:31.580Z,97269.88
2023-01-18T19:22:53.853Z,97275.44
2023-01-18T19:28:16.577Z,97281.56
2023-01-18T19:33:38.449Z,97292.44
2023-01-18T19:39:02.244Z,97293.03
2023-01-18T19:44:24.465Z,97302.22
2023-01-18T19:49:46.252Z,97303.81
2023-01-18T19:55:08.365Z,97319.16
2023-01-18T20:00:30.498Z,97319.63
2023-01-18T20:05:52.365Z,97328.28
2023-01-18T20:11:15.607Z,97334.50
2023-01-18T20:16:38.555Z,97346.47
2023-01-18T20:22:00.313Z,97352.47
2023-01-18T20:27:22.018Z,97362.44
2023-01-18T20:32:43.969Z,97364.00
2023-01-18T20:38:06.429Z,97374.06
2023-01-18T20:43:28.313Z,97379.84
2023-01-18T20:48:50.017Z,97379.31
2023-01-18T20:54:11.850Z,97382.28
2023-01-18T20:59:36.258Z,97390.28
2023-01-18T21:04:58.149Z,97402.31
2023-01-18T21:10:20.025Z,97417.00
2023-01-18T21:15:45.802Z,97420.69
2023-01-18T21:21:09.584Z,97421.97
2023-01-18T21:26:36.420Z,97426.59
2023-01-18T21:31:58.520Z,97431.47
2023-01-18T21:37:20.231Z,97434.63
2023-01-18T21:43:08.337Z,97434.88
2023-01-18T21:48:31.495Z,97443.13
2023-01-18T21:54:11.625Z,97439.56
2023-01-18T21:59:34.479Z,97452.19
2023-01-18T22:05:00.015Z,97463.56
2023-01-18T22:10:21.699Z,97461.88
2023-01-18T22:15:43.371Z,97481.69
2023-01-18T22:21:05.233Z,97486.31
2023-01-18T22:26:29.480Z,97496.84
2023-01-18T22:31:52.827Z,97498.09
2023-01-18T22:37:14.534Z,97508.84
2023-01-18T22:42:36.273Z,97517.81
2023-01-18T22:47:58.352Z,97520.53
2023-01-18T22:53:21.265Z,97519.16
2023-01-18T22:58:43.408Z,97520.22
2023-01-18T23:04:05.545Z,97525.22
2023-01-18T23:09:27.436Z,97534.06
2023-01-18T23:15:07.896Z,97546.31
2023-01-18T23:20:29.622Z,97551.00
2023-01-18T23:25:55.236Z,97547.03
2023-01-18T23:31:18.187Z,97552.84
2023-01-18T23:36:39.948Z,97552.41
2023-01-18T23:42:20.200Z,97554.31
2023-01-18T23:48:00.849Z,97557.09
2023-01-18T23:53:41.454Z,97567.22
2023-01-18T23:59:03.243Z,97572.88
